createdAt,value
2024-04-01T00:00:20.074Z,53.91
2024-04-01T00:01:21.103Z,52.76
2024-04-01T00:02:21.962Z,52.98
2024-04-01T00:03:22.824Z,53.28
2024-04-01T00:04:23.669Z,53.15
2024-04-01T00:05:24.513Z,53.82
2024-04-01T00:06:25.350Z,53.72
2024-04-01T00:07:26.205Z,53.43
2024-04-01T00:08:27.317Z,53.52
2024-04-01T00:09:28.158Z,52.97
2024-04-01T00:10:28.988Z,53.32
2024-04-01T00:11:29.842Z,53.21
2024-04-01T00:12:30.696Z,53.09
2024-04-01T00:13:31.532Z,53.22
2024-04-01T00:14:32.386Z,53.21
2024-04-01T00:15:33.215Z,52.88
2024-04-01T00:16:34.077Z,52.71
2024-04-01T00:17:34.950Z,53.04
2024-04-01T00:18:35.798Z,52.48
2024-04-01T00:19:36.631Z,52.86
2024-04-01T00:20:37.689Z,52.18
2024-04-01T00:21:38.546Z,52.29
2024-04-01T00:22:39.385Z,52.65
2024-04-01T00:23:40.234Z,52.27
2024-04-01T00:24:41.065Z,52.13
2024-04-01T00:25:41.924Z,52.61
2024-04-01T00:26:43.818Z,52.89
2024-04-01T00:27:44.788Z,53.41
2024-04-01T00:28:45.632Z,52.74
2024-04-01T00:29:46.471Z,53.23
2024-04-01T00:30:47.315Z,53.24
2024-04-01T00:31:48.168Z,52.64
2024-04-01T00:32:49.003Z,52.80
2024-04-01T00:33:50.539Z,52.83
2024-04-01T00:34:54.049Z,52.64
2024-04-01T00:35:58.950Z,52.84
2024-04-01T00:36:59.842Z,52.01
2024-04-01T00:38:00.684Z,52.02
2024-04-01T00:39:01.735Z,51.99
2024-04-01T00:40:02.796Z,52.34
2024-04-01T00:41:03.744Z,52.24
2024-04-01T00:42:05.026Z,52.00
2024-04-01T00:43:09.252Z,51.75
2024-04-01T00:44:10.101Z,52.57
2024-04-01T00:45:10.942Z,51.74
2024-04-01T00:46:11.775Z,52.28
2024-04-01T00:47:12.636Z,52.27
2024-04-01T00:48:14.027Z,51.32
2024-04-01T00:49:16.498Z,52.16
2024-04-01T00:50:17.898Z,51.39
2024-04-01T00:51:19.088Z,51.38
2024-04-01T00:52:19.965Z,51.49
2024-04-01T00:53:20.898Z,51.40
2024-04-01T00:54:21.727Z,51.68
2024-04-01T00:55:22.663Z,50.86
2024-04-01T00:56:23.580Z,51.22
2024-04-01T00:57:24.483Z,50.78
2024-04-01T00:58:25.458Z,50.76
2024-04-01T00:59:26.295Z,50.94
2024-04-01T01:00:27.171Z,51.03
2024-04-01T01:01:28.016Z,51.03
2024-04-01T01:02:29.571Z,51.14
2024-04-01T01:03:30.441Z,51.68
2024-04-01T01:04:31.276Z,50.88
2024-04-01T01:05:32.318Z,50.92
2024-04-01T01:06:33.202Z,50.82
2024-04-01T01:07:34.032Z,51.00
2024-04-01T01:08:34.864Z,51.11
2024-04-01T01:09:36.503Z,51.12
2024-04-01T01:10:37.378Z,51.38
2024-04-01T01:11:38.901Z,51.49
2024-04-01T01:12:40.324Z,51.04
2024-04-01T01:13:41.163Z,51.12
2024-04-01T01:14:41.996Z,50.64
2024-04-01T01:15:42.834Z,51.03
2024-04-01T01:16:43.732Z,51.15
2024-04-01T01:17:45.610Z,51.35
2024-04-01T01:18:46.452Z,51.34
2024-04-01T01:19:47.288Z,50.72
2024-04-01T01:20:48.160Z,50.75
2024-04-01T01:21:48.998Z,50.74
2024-04-01T01:22:49.832Z,51.05
2024-04-01T01:23:50.695Z,50.87
2024-04-01T01:24:51.528Z,51.02
2024-04-01T01:25:52.378Z,50.83
2024-04-01T01:26:55.577Z,50.94
2024-04-01T01:27:56.428Z,51.30
2024-04-01T01:28:58.628Z,51.05
2024-04-01T01:30:04.202Z,51.26
2024-04-01T01:31:05.275Z,51.13
2024-04-01T01:32:06.251Z,51.13
2024-04-01T01:33:07.211Z,50.67
2024-04-01T01:34:08.048Z,51.00
2024-04-01T01:35:09.205Z,50.86
2024-04-01T01:36:10.062Z,50.70
2024-04-01T01:37:10.916Z,51.48
2024-04-01T01:38:13.139Z,51.24
2024-04-01T01:39:13.980Z,51.27
2024-04-01T01:40:14.867Z,50.96
2024-04-01T01:41:15.699Z,50.81
2024-04-01T01:42:16.540Z,51.14
2024-04-01T01:43:17.418Z,51.18
2024-04-01T01:44:18.253Z,51.51
2024-04-01T01:45:19.112Z,51.51
2024-04-01T01:46:19.958Z,51.40
2024-04-01T01:47:20.800Z,51.81
2024-04-01T01:48:21.631Z,51.81
2024-04-01T01:49:23.873Z,51.22
2024-04-01T01:50:24.774Z,51.00
2024-04-01T01:51:27.190Z,51.06
2024-04-01T01:52:28.025Z,50.85
2024-04-01T01:53:28.878Z,51.23
2024-04-01T01:54:29.727Z,50.35
2024-04-01T01:55:30.570Z,50.50
2024-04-01T01:56:32.047Z,50.72
2024-04-01T01:57:33.176Z,50.18
2024-04-01T01:58:34.052Z,50.14
2024-04-01T01:59:34.931Z,49.95
2024-04-01T02:00:35.766Z,49.84
2024-04-01T02:01:36.612Z,50.02
2024-04-01T02:02:37.448Z,49.89
2024-04-01T02:03:38.338Z,49.67
2024-04-01T02:04:39.264Z,49.83
2024-04-01T02:05:41.887Z,49.23
2024-04-01T02:06:42.779Z,49.26
2024-04-01T02:07:43.630Z,49.19
2024-04-01T02:08:44.461Z,48.96
2024-04-01T02:09:45.304Z,48.81
2024-04-01T02:10:56.123Z,48.73
2024-04-01T02:11:57.668Z,48.19
2024-04-01T02:12:58.533Z,48.28
2024-04-01T02:13:59.458Z,47.88
2024-04-01T02:15:00.319Z,47.99
2024-04-01T02:16:07.909Z,48.37
2024-04-01T02:17:08.819Z,47.65
2024-04-01T02:18:09.678Z,47.42
2024-04-01T02:19:10.515Z,46.88
2024-04-01T02:20:16.069Z,47.12
2024-04-01T02:21:18.651Z,47.15
2024-04-01T02:22:22.799Z,46.67
2024-04-01T02:23:29.581Z,47.17
2024-04-01T02:24:30.413Z,46.84
2024-04-01T02:25:34.075Z,46.80
2024-04-01T02:26:34.999Z,46.70
2024-04-01T02:27:35.837Z,46.72
2024-04-01T02:28:36.668Z,47.22
2024-04-01T02:29:37.912Z,47.14
2024-04-01T02:30:38.762Z,47.19
2024-04-01T02:31:39.599Z,47.49
2024-04-01T02:32:40.601Z,47.02
2024-04-01T02:33:41.432Z,46.79
2024-04-01T02:34:42.269Z,47.12
2024-04-01T02:35:43.153Z,47.01
2024-04-01T02:36:43.988Z,46.83
2024-04-01T02:37:44.832Z,47.56
2024-04-01T02:38:48.717Z,46.77
2024-04-01T02:39:49.550Z,47.11
2024-04-01T02:40:50.405Z,47.55
2024-04-01T02:41:51.548Z,47.30
2024-04-01T02:42:52.388Z,47.65
2024-04-01T02:43:53.240Z,47.85
2024-04-01T02:44:54.113Z,47.79
2024-04-01T02:45:54.957Z,47.49
2024-04-01T02:46:55.793Z,47.36
2024-04-01T02:47:56.736Z,47.59
2024-04-01T02:48:57.571Z,47.62
2024-04-01T02:49:58.565Z,48.23
2024-04-01T02:50:59.401Z,48.37
2024-04-01T02:52:00.229Z,47.64
2024-04-01T02:53:01.145Z,48.03
2024-04-01T02:54:02.092Z,48.81
2024-04-01T02:55:03.079Z,48.66
2024-04-01T02:56:07.019Z,47.88
2024-04-01T02:57:08.758Z,47.84
2024-04-01T02:58:09.709Z,48.18
2024-04-01T02:59:10.558Z,48.68
2024-04-01T03:00:17.703Z,48.27
2024-04-01T03:01:18.582Z,48.18
2024-04-01T03:02:19.414Z,48.47
2024-04-01T03:03:20.605Z,47.99
2024-04-01T03:04:21.473Z,48.82
2024-04-01T03:05:22.311Z,48.09
2024-04-01T03:06:23.144Z,48.87
2024-04-01T03:07:23.979Z,48.82
2024-04-01T03:08:25.295Z,48.33
2024-04-01T03:09:26.137Z,48.21
2024-04-01T03:10:27.051Z,48.34
2024-04-01T03:11:27.912Z,48.49
2024-04-01T03:12:28.821Z,48.40
2024-04-01T03:13:29.729Z,48.66
2024-04-01T03:14:30.580Z,49.23
2024-04-01T03:15:31.531Z,48.37
2024-04-01T03:16:32.386Z,48.64
2024-04-01T03:17:33.245Z,48.98
2024-04-01T03:18:34.114Z,48.39
2024-04-01T03:19:34.948Z,48.82
2024-04-01T03:20:35.782Z,48.91
2024-04-01T03:21:36.618Z,49.13
2024-04-01T03:22:37.479Z,48.78
2024-04-01T03:23:38.323Z,49.28
2024-04-01T03:24:39.162Z,49.03
2024-04-01T03:25:40.062Z,49.96
2024-04-01T03:26:40.910Z,49.28
2024-04-01T03:27:42.726Z,49.66
2024-04-01T03:28:44.240Z,49.96
2024-04-01T03:29:45.077Z,50.58
2024-04-01T03:30:46.536Z,50.22
2024-04-01T03:31:47.372Z,49.85
2024-04-01T03:32:48.240Z,50.17
2024-04-01T03:33:49.076Z,50.19
2024-04-01T03:34:50.358Z,50.27
2024-04-01T03:35:56.962Z,50.27
2024-04-01T03:36:59.633Z,49.97
2024-04-01T03:38:00.586Z,50.57
2024-04-01T03:39:01.669Z,51.07
2024-04-01T03:40:02.670Z,50.59
2024-04-01T03:41:03.626Z,50.70
2024-04-01T03:42:04.533Z,50.03
2024-04-01T03:43:08.524Z,50.37
2024-04-01T03:44:09.365Z,50.28
2024-04-01T03:45:10.191Z,50.04
2024-04-01T03:46:11.053Z,50.77
2024-04-01T03:47:11.894Z,50.41
2024-04-01T03:48:12.773Z,50.52
2024-04-01T03:49:13.635Z,50.64
2024-04-01T03:50:14.500Z,50.84
2024-04-01T03:51:15.676Z,51.01
2024-04-01T03:52:16.505Z,50.97
2024-04-01T03:53:17.499Z,51.54
2024-04-01T03:54:18.362Z,51.87
2024-04-01T03:55:19.290Z,52.29
2024-04-01T03:56:20.148Z,52.63
2024-04-01T03:57:20.985Z,52.79
2024-04-01T03:58:21.829Z,53.06
2024-04-01T03:59:22.674Z,52.60
2024-04-01T04:00:23.544Z,53.49
2024-04-01T04:01:24.642Z,53.11
2024-04-01T04:02:25.514Z,53.14
2024-04-01T04:03:26.372Z,53.44
2024-04-01T04:04:27.251Z,53.84
2024-04-01T04:05:28.279Z,53.97
2024-04-01T04:06:29.142Z,53.57
2024-04-01T04:07:29.977Z,53.46
2024-04-01T04:08:30.821Z,53.44
2024-04-01T04:09:31.678Z,53.50
2024-04-01T04:10:32.520Z,53.21
2024-04-01T04:11:33.718Z,53.05
2024-04-01T04:12:34.548Z,53.60
2024-04-01T04:13:35.420Z,53.11
2024-04-01T04:14:36.287Z,53.21
2024-04-01T04:15:37.151Z,52.94
2024-04-01T04:16:38.062Z,53.14
2024-04-01T04:17:38.900Z,52.61
2024-04-01T04:18:39.755Z,52.01
2024-04-01T04:19:40.591Z,52.55
2024-04-01T04:20:41.430Z,52.19
2024-04-01T04:21:42.306Z,52.20
2024-04-01T04:22:45.091Z,52.11
2024-04-01T04:23:45.957Z,51.99
2024-04-01T04:24:47.039Z,52.32
2024-04-01T04:25:47.886Z,52.53
2024-04-01T04:26:48.852Z,52.45
2024-04-01T04:27:49.720Z,51.99
2024-04-01T04:28:50.702Z,52.43
2024-04-01T04:29:51.563Z,52.47
2024-04-01T04:30:52.423Z,51.63
2024-04-01T04:31:54.512Z,51.90
2024-04-01T04:32:55.369Z,51.55
2024-04-01T04:33:56.291Z,51.17
2024-04-01T04:34:57.142Z,51.51
2024-04-01T04:35:58.274Z,51.12
2024-04-01T04:36:59.249Z,51.39
2024-04-01T04:38:02.128Z,51.15
2024-04-01T04:39:19.441Z,51.62
2024-04-01T04:40:20.502Z,51.73
2024-04-01T04:41:22.380Z,51.25
2024-04-01T04:42:23.230Z,51.31
2024-04-01T04:43:24.067Z,51.68
2024-04-01T04:44:24.900Z,51.92
2024-04-01T04:45:26.000Z,51.88
2024-04-01T04:46:26.889Z,51.48
2024-04-01T04:47:27.777Z,51.55
2024-04-01T04:48:28.878Z,52.22
2024-04-01T04:49:29.722Z,52.26
2024-04-01T04:50:31.669Z,52.08
2024-04-01T04:51:33.632Z,51.97
2024-04-01T04:52:34.472Z,52.19
2024-04-01T04:53:35.985Z,52.55
2024-04-01T04:54:37.270Z,52.58
2024-04-01T04:55:40.173Z,52.86
2024-04-01T04:56:41.011Z,52.63
2024-04-01T04:57:42.277Z,52.88
2024-04-01T04:58:43.112Z,52.44
2024-04-01T04:59:43.957Z,52.49
2024-04-01T05:00:44.820Z,53.10
2024-04-01T05:01:45.656Z,53.00
2024-04-01T05:02:47.788Z,52.13
2024-04-01T05:03:48.675Z,52.47
2024-04-01T05:04:50.052Z,52.60
2024-04-01T05:05:50.947Z,52.19
2024-04-01T05:06:51.784Z,52.70
2024-04-01T05:07:52.619Z,52.63
2024-04-01T05:08:53.562Z,52.36
2024-04-01T05:09:54.427Z,52.55
2024-04-01T05:10:56.336Z,52.88
2024-04-01T05:11:57.269Z,52.50
2024-04-01T05:12:58.198Z,53.17
2024-04-01T05:13:59.099Z,53.24
2024-04-01T05:14:59.940Z,52.45
2024-04-01T05:16:01.008Z,52.67
2024-04-01T05:17:01.853Z,53.84
2024-04-01T05:18:03.679Z,53.54
2024-04-01T05:19:07.458Z,54.32
2024-04-01T05:20:13.791Z,54.72
2024-04-01T05:21:14.635Z,55.06
2024-04-01T05:22:15.465Z,55.75
2024-04-01T05:23:16.298Z,54.94
2024-04-01T05:24:17.778Z,56.04
2024-04-01T05:25:18.709Z,56.29
2024-04-01T05:26:20.241Z,55.71
2024-04-01T05:27:21.651Z,55.71
2024-04-01T05:28:22.693Z,55.89
2024-04-01T05:29:23.531Z,56.86
2024-04-01T05:30:24.371Z,56.66
2024-04-01T05:31:25.237Z,56.12
2024-04-01T05:32:26.086Z,55.72
2024-04-01T05:33:33.266Z,56.23
2024-04-01T05:34:37.768Z,56.16
2024-04-01T05:35:38.606Z,56.18
2024-04-01T05:36:39.456Z,56.32
2024-04-01T05:37:41.388Z,56.52
2024-04-01T05:38:42.273Z,56.19
2024-04-01T05:39:43.120Z,56.00
2024-04-01T05:40:44.111Z,55.45
2024-04-01T05:41:44.953Z,55.89
2024-04-01T05:42:45.822Z,55.86
2024-04-01T05:43:46.667Z,55.97
2024-04-01T05:44:47.846Z,55.71
2024-04-01T05:45:50.054Z,55.76
2024-04-01T05:46:51.306Z,55.60
2024-04-01T05:47:52.818Z,55.22
2024-04-01T05:48:53.697Z,54.87
2024-04-01T05:49:54.541Z,53.24
2024-04-01T05:50:55.379Z,53.40
2024-04-01T05:51:56.240Z,54.22
2024-04-01T05:52:57.114Z,52.80
2024-04-01T05:53:57.963Z,53.64
2024-04-01T05:54:58.809Z,52.28
2024-04-01T05:56:03.486Z,53.06
2024-04-01T05:57:04.361Z,52.89
2024-04-01T05:58:05.197Z,52.56
2024-04-01T05:59:06.037Z,52.33
2024-04-01T06:00:08.347Z,51.91
2024-04-01T06:01:11.691Z,52.04
2024-04-01T06:02:12.531Z,52.33
2024-04-01T06:03:13.412Z,51.47
2024-04-01T06:04:14.272Z,51.13
2024-04-01T06:05:15.354Z,52.55
2024-04-01T06:06:16.201Z,51.28
2024-04-01T06:07:17.039Z,51.81
2024-04-01T06:08:17.873Z,51.57
2024-04-01T06:09:18.729Z,51.36
2024-04-01T06:10:20.052Z,51.78
2024-04-01T06:11:20.891Z,51.23
2024-04-01T06:12:21.716Z,51.43
2024-04-01T06:13:22.547Z,52.23
2024-04-01T06:14:23.383Z,51.41
2024-04-01T06:15:24.255Z,50.86
2024-04-01T06:16:26.157Z,51.06
2024-04-01T06:17:27.036Z,51.07
2024-04-01T06:18:27.903Z,51.35
2024-04-01T06:19:28.822Z,50.70
2024-04-01T06:20:30.146Z,50.42
2024-04-01T06:21:32.586Z,49.86
2024-04-01T06:22:33.576Z,49.70
2024-04-01T06:23:34.428Z,49.41
2024-04-01T06:24:35.282Z,50.35
2024-04-01T06:25:39.921Z,49.43
2024-04-01T06:26:40.778Z,49.08
2024-04-01T06:27:41.612Z,49.18
2024-04-01T06:28:44.551Z,48.39
2024-04-01T06:29:45.407Z,48.40
2024-04-01T06:30:47.974Z,48.91
2024-04-01T06:31:48.842Z,48.79
2024-04-01T06:32:49.714Z,48.55
2024-04-01T06:33:50.572Z,48.89
2024-04-01T06:34:54.172Z,48.50
2024-04-01T06:36:22.745Z,48.11
2024-04-01T06:37:23.595Z,48.21
2024-04-01T06:38:24.428Z,48.29
2024-04-01T06:39:25.288Z,47.84
2024-04-01T06:40:26.253Z,47.32
2024-04-01T06:41:27.528Z,47.99
2024-04-01T06:42:28.412Z,48.58
2024-04-01T06:43:29.563Z,48.76
2024-04-01T06:44:30.478Z,46.93
2024-04-01T06:45:31.317Z,48.04
2024-04-01T06:46:32.158Z,47.32
2024-04-01T06:47:33.030Z,49.72
2024-04-01T06:48:34.865Z,48.64
2024-04-01T06:49:35.727Z,48.57
2024-04-01T06:50:36.586Z,48.07
2024-04-01T06:51:37.432Z,47.18
2024-04-01T06:52:38.294Z,48.05
2024-04-01T06:53:39.201Z,46.90
2024-04-01T06:54:40.210Z,46.53
2024-04-01T06:55:41.053Z,47.77
2024-04-01T06:56:41.892Z,46.80
2024-04-01T06:57:43.687Z,47.54
2024-04-01T06:58:44.548Z,47.53
2024-04-01T06:59:45.386Z,46.86
2024-04-01T07:00:46.221Z,47.29
2024-04-01T07:01:47.059Z,46.10
2024-04-01T07:02:47.927Z,46.01
2024-04-01T07:03:48.843Z,45.82
2024-04-01T07:04:49.691Z,45.62
2024-04-01T07:05:50.552Z,45.86
2024-04-01T07:06:51.408Z,45.83
2024-04-01T07:07:52.246Z,43.72
2024-04-01T07:08:53.087Z,43.67
2024-04-01T07:09:53.937Z,43.77
2024-04-01T07:10:54.837Z,44.55
2024-04-01T07:11:55.686Z,43.34
2024-04-01T07:12:56.520Z,43.33
2024-04-01T07:13:57.365Z,43.42
2024-04-01T07:14:58.205Z,43.48
2024-04-01T07:15:59.081Z,43.33
2024-04-01T07:17:01.387Z,43.71
2024-04-01T07:18:02.221Z,43.31
2024-04-01T07:19:03.071Z,43.32
2024-04-01T07:20:05.044Z,43.67
2024-04-01T07:21:05.915Z,42.34
2024-04-01T07:22:06.757Z,43.21
2024-04-01T07:23:07.598Z,42.53
2024-04-01T07:24:08.472Z,42.46
2024-04-01T07:25:09.337Z,42.07
2024-04-01T07:26:10.221Z,42.48
2024-04-01T07:27:11.051Z,42.09
2024-04-01T07:28:11.930Z,41.33
2024-04-01T07:29:15.606Z,41.94
2024-04-01T07:30:16.554Z,41.52
2024-04-01T07:31:17.418Z,41.57
2024-04-01T07:32:18.379Z,40.35
2024-04-01T07:33:19.260Z,40.91
2024-04-01T07:34:20.130Z,40.64
2024-04-01T07:35:20.974Z,40.88
2024-04-01T07:36:21.837Z,40.70
2024-04-01T07:37:22.768Z,40.41
2024-04-01T07:38:23.598Z,40.99
2024-04-01T07:39:24.492Z,41.17
2024-04-01T07:40:26.425Z,41.30
2024-04-01T07:41:27.268Z,39.24
2024-04-01T07:42:28.112Z,39.24
2024-04-01T07:43:28.982Z,39.13
2024-04-01T07:44:29.846Z,38.59
2024-04-01T07:45:30.707Z,38.29
2024-04-01T07:46:31.589Z,38.39
2024-04-01T07:47:32.559Z,36.51
2024-04-01T07:48:33.393Z,36.45
2024-04-01T07:49:34.628Z,36.79
2024-04-01T07:50:35.459Z,37.50
2024-04-01T07:51:36.324Z,36.00
2024-04-01T07:52:37.650Z,36.05
2024-04-01T07:53:38.538Z,36.26
2024-04-01T07:54:39.377Z,36.28
2024-04-01T07:55:40.228Z,34.22
2024-04-01T07:56:41.066Z,35.84
2024-04-01T07:57:41.906Z,34.44
2024-04-01T07:58:42.775Z,34.70
2024-04-01T07:59:44.118Z,34.80
2024-04-01T08:00:44.960Z,35.07
2024-04-01T08:01:45.802Z,34.52
2024-04-01T08:02:46.658Z,36.28
2024-04-01T08:03:47.494Z,35.62
2024-04-01T08:04:48.839Z,35.77
2024-04-01T08:05:50.531Z,35.67
2024-04-01T08:06:51.393Z,37.26
2024-04-01T08:07:52.236Z,36.25
2024-04-01T08:08:53.088Z,36.46
2024-04-01T08:09:53.922Z,36.82
2024-04-01T08:10:54.757Z,36.07
2024-04-01T08:11:55.622Z,37.00
2024-04-01T08:12:56.469Z,35.78
2024-04-01T08:13:57.312Z,36.79
2024-04-01T08:14:58.163Z,36.44
2024-04-01T08:16:02.399Z,36.44
2024-04-01T08:17:03.978Z,36.74
2024-04-01T08:18:04.950Z,35.36
2024-04-01T08:19:05.790Z,34.97
2024-04-01T08:20:08.457Z,36.65
2024-04-01T08:21:09.331Z,35.83
2024-04-01T08:22:10.230Z,34.78
2024-04-01T08:23:11.062Z,34.36
2024-04-01T08:24:12.164Z,34.90
2024-04-01T08:25:13.733Z,34.32
2024-04-01T08:26:14.579Z,35.32
2024-04-01T08:27:16.922Z,35.26
2024-04-01T08:28:17.876Z,36.11
2024-04-01T08:29:18.714Z,35.58
2024-04-01T08:30:19.546Z,34.59
2024-04-01T08:31:20.408Z,34.78
2024-04-01T08:32:21.242Z,34.96
2024-04-01T08:33:22.106Z,36.63
2024-04-01T08:34:23.631Z,35.36
2024-04-01T08:35:24.522Z,34.60
2024-04-01T08:36:25.378Z,34.94
2024-04-01T08:37:26.638Z,34.98
2024-04-01T08:38:27.962Z,35.64
2024-04-01T08:39:28.812Z,34.23
2024-04-01T08:40:31.830Z,33.66
2024-04-01T08:41:51.950Z,34.63
2024-04-01T08:42:55.260Z,34.50
2024-04-01T08:43:58.786Z,34.75
2024-04-01T08:44:59.640Z,33.81
2024-04-01T08:46:00.603Z,32.92
2024-04-01T08:47:01.530Z,33.31
2024-04-01T08:48:06.976Z,33.94
2024-04-01T08:49:10.989Z,33.05
2024-04-01T08:50:23.766Z,31.92
2024-04-01T08:51:25.237Z,32.36
2024-04-01T08:52:26.953Z,32.94
2024-04-01T08:53:33.511Z,32.63
2024-04-01T08:54:34.369Z,33.13
2024-04-01T08:55:35.220Z,32.22
2024-04-01T08:56:42.407Z,32.08
2024-04-01T08:57:44.815Z,31.70
2024-04-01T08:58:48.254Z,32.36
2024-04-01T08:59:49.768Z,31.57
2024-04-01T09:00:50.623Z,32.73
2024-04-01T09:01:51.468Z,33.12
2024-04-01T09:02:52.311Z,32.66
2024-04-01T09:03:53.414Z,32.18
2024-04-01T09:04:54.808Z,32.80
2024-04-01T09:05:57.792Z,31.17
2024-04-01T09:06:58.727Z,30.83
2024-04-01T09:07:59.574Z,31.03
2024-04-01T09:09:00.459Z,31.14
2024-04-01T09:10:01.291Z,30.56
2024-04-01T09:11:02.133Z,30.51
2024-04-01T09:12:03.140Z,31.39
2024-04-01T09:13:04.062Z,30.13
2024-04-01T09:14:05.744Z,29.81
2024-04-01T09:15:12.036Z,30.28
2024-04-01T09:16:12.871Z,30.17
2024-04-01T09:17:22.872Z,29.37
2024-04-01T09:18:23.746Z,28.89
2024-04-01T09:19:24.907Z,28.99
2024-04-01T09:20:25.780Z,28.24
2024-04-01T09:21:26.638Z,28.84
2024-04-01T09:22:27.493Z,28.20
2024-04-01T09:23:30.607Z,28.57
2024-04-01T09:24:33.928Z,28.27
2024-04-01T09:25:34.867Z,28.22
2024-04-01T09:26:35.759Z,27.62
2024-04-01T09:27:36.591Z,27.76
2024-04-01T09:28:37.458Z,28.45
2024-04-01T09:29:38.361Z,27.88
2024-04-01T09:30:39.209Z,27.80
2024-04-01T09:31:40.105Z,26.61
2024-04-01T09:32:40.951Z,26.12
2024-04-01T09:33:41.788Z,26.08
2024-04-01T09:34:42.865Z,25.40
2024-04-01T09:35:43.743Z,24.42
2024-04-01T09:36:44.597Z,25.53
2024-04-01T09:37:45.467Z,25.36
2024-04-01T09:38:46.579Z,25.93
2024-04-01T09:39:47.441Z,25.57
2024-04-01T09:40:51.765Z,25.34
2024-04-01T09:41:52.629Z,25.56
2024-04-01T09:42:57.660Z,25.34
2024-04-01T09:43:58.566Z,26.06
2024-04-01T09:44:59.670Z,25.67
2024-04-01T09:46:02.739Z,24.66
2024-04-01T09:47:05.080Z,26.13
2024-04-01T09:48:06.288Z,27.97
2024-04-01T09:49:07.132Z,24.96
2024-04-01T09:50:07.959Z,23.97
2024-04-01T09:51:08.829Z,25.05
2024-04-01T09:52:09.671Z,25.93
2024-04-01T09:53:10.510Z,26.71
2024-04-01T09:54:11.356Z,24.81
2024-04-01T09:55:21.469Z,25.16
2024-04-01T09:56:39.968Z,24.27
2024-04-01T09:58:18.233Z,22.75
2024-04-01T09:59:27.295Z,22.56
2024-04-01T10:00:38.347Z,23.51
2024-04-01T10:02:16.075Z,22.84
2024-04-01T10:03:38.217Z,21.83
2024-04-01T10:04:55.816Z,23.14
2024-04-01T10:06:14.435Z,21.85
2024-04-01T10:07:47.328Z,22.19
2024-04-01T10:09:15.594Z,22.47
2024-04-01T10:10:35.732Z,23.54
2024-04-01T10:11:56.285Z,22.39
2024-04-01T10:13:33.611Z,22.74
2024-04-01T10:15:20.603Z,24.43
2024-04-01T10:16:53.875Z,23.49
2024-04-01T10:18:35.603Z,23.10
2024-04-01T10:20:08.671Z,22.85
2024-04-01T10:21:20.910Z,22.91
2024-04-01T10:22:30.428Z,22.53
2024-04-01T10:23:55.574Z,23.52
2024-04-01T10:25:05.291Z,22.78
2024-04-01T10:26:43.246Z,23.52
2024-04-01T10:28:08.175Z,22.35
2024-04-01T10:29:46.028Z,22.21
2024-04-01T10:31:08.664Z,22.97
2024-04-01T10:32:15.211Z,23.67
2024-04-01T10:33:52.959Z,22.45
2024-04-01T10:35:20.850Z,21.73
2024-04-01T10:36:34.188Z,21.71
2024-04-01T10:37:51.436Z,22.65
2024-04-01T10:39:33.889Z,22.47
2024-04-01T10:40:53.099Z,22.45
2024-04-01T10:41:59.461Z,23.24
2024-04-01T10:43:29.057Z,22.22
2024-04-01T10:45:01.144Z,22.63
2024-04-01T10:46:04.684Z,22.94
2024-04-01T10:47:40.410Z,23.19
2024-04-01T10:49:23.261Z,21.60
2024-04-01T10:50:51.758Z,22.69
2024-04-01T10:52:21.731Z,21.83
2024-04-01T10:53:57.638Z,23.04
2024-04-01T10:55:08.301Z,21.43
2024-04-01T10:56:34.353Z,22.23
2024-04-01T10:57:59.421Z,22.64
2024-04-01T10:59:18.610Z,21.64
2024-04-01T11:00:52.809Z,21.44
2024-04-01T11:02:14.606Z,20.41
2024-04-01T11:03:24.184Z,23.06
2024-04-01T11:04:33.508Z,21.66
2024-04-01T11:06:11.619Z,20.84
2024-04-01T11:07:15.233Z,21.28
2024-04-01T11:08:29.099Z,21.99
2024-04-01T11:09:55.887Z,19.94
2024-04-01T11:11:15.295Z,20.79
2024-04-01T11:12:51.143Z,20.45
2024-04-01T11:13:52.017Z,21.44
2024-04-01T11:14:52.908Z,20.80
2024-04-01T11:15:55.433Z,20.72
2024-04-01T11:16:57.126Z,24.00
2024-04-01T11:18:22.345Z,22.62
2024-04-01T11:19:37.637Z,21.80
2024-04-01T11:20:44.480Z,20.64
2024-04-01T11:21:50.841Z,20.82
2024-04-01T11:23:01.295Z,20.49
2024-04-01T11:24:33.494Z,21.11
2024-04-01T11:26:11.064Z,20.92
2024-04-01T11:27:30.446Z,21.35
2024-04-01T11:29:08.343Z,20.31
2024-04-01T11:30:20.908Z,21.49
2024-04-01T11:31:23.796Z,20.34
2024-04-01T11:32:24.900Z,21.77
2024-04-01T11:33:27.125Z,21.95
2024-04-01T11:34:54.691Z,19.47
2024-04-01T11:35:55.528Z,19.70
2024-04-01T11:37:07.671Z,18.99
2024-04-01T11:38:26.940Z,20.79
2024-04-01T11:39:27.773Z,20.84
2024-04-01T11:40:32.828Z,21.44
2024-04-01T11:41:34.394Z,20.35
2024-04-01T11:42:38.934Z,19.71
2024-04-01T11:43:41.069Z,19.67
2024-04-01T11:44:46.250Z,20.63
2024-04-01T11:45:47.798Z,19.70
2024-04-01T11:46:48.674Z,19.92
2024-04-01T11:47:49.528Z,19.84
2024-04-01T11:48:56.347Z,21.55
2024-04-01T11:49:57.229Z,19.50
2024-04-01T11:50:58.410Z,19.17
2024-04-01T11:51:59.305Z,19.24
2024-04-01T11:53:05.303Z,20.62
2024-04-01T11:54:08.727Z,20.91
2024-04-01T11:55:12.861Z,20.73
2024-04-01T11:56:13.705Z,20.29
2024-04-01T11:57:23.724Z,20.27
2024-04-01T11:58:25.190Z,20.98
2024-04-01T11:59:29.847Z,20.47
2024-04-01T12:00:30.889Z,22.88
2024-04-01T12:01:32.330Z,20.87
2024-04-01T12:02:34.137Z,20.70
2024-04-01T12:03:39.461Z,20.75
2024-04-01T12:04:40.319Z,21.06
2024-04-01T12:05:51.571Z,20.76
2024-04-01T12:06:52.411Z,21.02
2024-04-01T12:07:53.245Z,20.81
2024-04-01T12:08:54.088Z,20.80
2024-04-01T12:09:54.920Z,21.96
2024-04-01T12:10:58.134Z,20.33
2024-04-01T12:11:59.778Z,21.41
2024-04-01T12:13:00.638Z,21.93
2024-04-01T12:14:05.028Z,21.39
2024-04-01T12:15:06.056Z,22.74
2024-04-01T12:16:08.288Z,22.69
2024-04-01T12:17:09.130Z,21.86
2024-04-01T12:18:16.210Z,22.84
2024-04-01T12:19:17.410Z,23.82
2024-04-01T12:20:18.489Z,22.67
2024-04-01T12:21:20.856Z,22.41
2024-04-01T12:22:21.800Z,22.18
2024-04-01T12:23:23.724Z,22.61
2024-04-01T12:24:24.555Z,23.25
2024-04-01T12:25:25.408Z,24.12
2024-04-01T12:26:36.255Z,23.73
2024-04-01T12:27:37.724Z,22.84
2024-04-01T12:28:38.697Z,23.21
2024-04-01T12:29:39.547Z,23.30
2024-04-01T12:30:40.893Z,24.64
2024-04-01T12:32:08.110Z,23.88
2024-04-01T12:33:18.357Z,23.87
2024-04-01T12:34:25.641Z,25.00
2024-04-01T12:35:26.474Z,24.94
2024-04-01T12:36:27.310Z,24.31
2024-04-01T12:37:28.162Z,23.33
2024-04-01T12:38:33.413Z,23.94
2024-04-01T12:39:42.309Z,25.04
2024-04-01T12:40:46.242Z,24.91
2024-04-01T12:41:50.048Z,25.01
2024-04-01T12:42:51.462Z,24.91
2024-04-01T12:43:52.317Z,24.51
2024-04-01T12:44:53.234Z,24.16
2024-04-01T12:45:54.301Z,24.25
2024-04-01T12:46:55.131Z,24.43
2024-04-01T12:47:55.984Z,24.40
2024-04-01T12:48:57.086Z,25.13
2024-04-01T12:50:01.172Z,25.32
2024-04-01T12:51:02.662Z,25.80
2024-04-01T12:52:04.087Z,25.52
2024-04-01T12:53:14.396Z,24.78
2024-04-01T12:54:23.576Z,24.61
2024-04-01T12:55:26.313Z,23.94
2024-04-01T12:56:41.976Z,23.32
2024-04-01T12:58:03.523Z,23.16
2024-04-01T12:59:16.113Z,23.66
2024-04-01T13:00:23.236Z,24.65
2024-04-01T13:01:53.996Z,24.67
2024-04-01T13:03:21.488Z,23.86
2024-04-01T13:04:22.251Z,23.54
2024-04-01T13:05:26.887Z,23.96
2024-04-01T13:06:48.424Z,23.66
2024-04-01T13:08:28.499Z,24.00
2024-04-01T13:09:58.855Z,24.15
2024-04-01T13:11:26.901Z,23.47
2024-04-01T13:12:45.598Z,24.38
2024-04-01T13:14:08.535Z,24.24
2024-04-01T13:15:33.593Z,23.36
2024-04-01T13:17:08.228Z,24.08
2024-04-01T13:18:12.804Z,23.63
2024-04-01T13:19:24.720Z,24.25
2024-04-01T13:20:34.372Z,24.47
2024-04-01T13:21:47.193Z,24.38
2024-04-01T13:23:23.572Z,25.27
2024-04-01T13:24:27.552Z,26.68
2024-04-01T13:25:44.917Z,26.58
2024-04-01T13:26:51.302Z,26.12
2024-04-01T13:28:10.749Z,25.45
2024-04-01T13:29:16.013Z,26.07
2024-04-01T13:30:34.578Z,25.35
2024-04-01T13:32:03.136Z,25.49
2024-04-01T13:33:04.045Z,24.87
2024-04-01T13:34:07.570Z,25.95
2024-04-01T13:35:41.755Z,25.15
2024-04-01T13:36:54.364Z,25.01
2024-04-01T13:38:18.114Z,25.88
2024-04-01T13:39:24.096Z,24.77
2024-04-01T13:40:42.846Z,26.10
2024-04-01T13:42:15.635Z,25.30
2024-04-01T13:43:16.392Z,25.14
2024-04-01T13:44:38.284Z,24.31
2024-04-01T13:46:04.829Z,23.76
2024-04-01T13:47:37.732Z,24.02
2024-04-01T13:49:05.960Z,24.80
2024-04-01T13:50:47.905Z,24.28